Aviation Digital Data Service (ADDS)

Output produced by METARs form (1206 UTC 23 November 2014)
found at http://aviationweather.gov/adds/metars/
 
METAR text: KSPB 231153Z AUTO 00000KT 6SM BR SCT015 BKN045 OVC110 04/03 A3026 RMK AO2 RAB11E20 SLP248 P0000 60001 70022 T00390033 10044 20022 50001
Conditions at: KSPB (SCAPPOOSE , OR, US) observed 1153 UTC 23 November 2014
Temperature: 3.9°C (39°F)
Dewpoint: 3.3°C (38°F) [RH = 96%]
Pressure (altimeter): 30.26 inches Hg (1024.8 mb)
[Sea-level pressure: 1024.8 mb]
Winds: calm
Visibility: 6 miles (10 km)
Ceiling: 4500 feet AGL
Clouds: scattered clouds at 1500 feet AGL
broken clouds at 4500 feet AGL
overcast cloud deck at 11000 feet AGL
Weather: BR  (mist)

METAR text: KSPB 231059Z AUTO 28003KT 3SM BR SCT046 BKN060 OVC100 03/03 A3028 RMK AO2 T00330028
Conditions at: KSPB (SCAPPOOSE , OR, US) observed 1059 UTC 23 November 2014
Temperature: 3.3°C (38°F)
Dewpoint: 2.8°C (37°F) [RH = 97%]
Pressure (altimeter): 30.28 inches Hg (1025.5 mb)
Winds: from the W (280 degrees) at 3 MPH (3 knots; 1.6 m/s)
Visibility: 3 miles (5 km)
Ceiling: 6000 feet AGL
Clouds: scattered clouds at 4600 feet AGL
broken clouds at 6000 feet AGL
overcast cloud deck at 10000 feet AGL
Weather: BR  (mist)

METAR text: KSPB 231053Z AUTO 00000KT 1 1/2SM BR FEW048 BKN060 OVC110 03/02 A3027 RMK AO2 VIS 1 1/4V3 SLP251 T00280022
Conditions at: KSPB (SCAPPOOSE , OR, US) observed 1053 UTC 23 November 2014
Temperature: 2.8°C (37°F)
Dewpoint: 2.2°C (36°F) [RH = 96%]
Pressure (altimeter): 30.27 inches Hg (1025.1 mb)
[Sea-level pressure: 1025.1 mb]
Winds: calm
Visibility: 1.50 miles (2.41 km)
Ceiling: 6000 feet AGL
Clouds: few clouds at 4800 feet AGL
broken clouds at 6000 feet AGL
overcast cloud deck at 11000 feet AGL
Weather: BR  (mist)

METAR text: KSPB 231049Z AUTO 00000KT 1 3/4SM BR FEW048 BKN065 BKN110 03/02 A3027 RMK AO2 VIS 1 1/4V3
Conditions at: KSPB (SCAPPOOSE , OR, US) observed 1049 UTC 23 November 2014
Temperature: 3.0°C (37°F)
Dewpoint: 2.0°C (36°F) [RH = 93%]
Pressure (altimeter): 30.27 inches Hg (1025.1 mb)
Winds: calm
Visibility: 1.75 miles (2.82 km)
Ceiling: 6500 feet AGL
Clouds: few clouds at 4800 feet AGL
broken clouds at 6500 feet AGL
broken clouds at 11000 feet AGL
Weather: BR  (mist)

METAR text: KSPB 231035Z AUTO 00000KT 6SM BR FEW009 SCT046 BKN120 04/03 A3028 RMK AO2 T00390028
Conditions at: KSPB (SCAPPOOSE , OR, US) observed 1035 UTC 23 November 2014
Temperature: 3.9°C (39°F)
Dewpoint: 2.8°C (37°F) [RH = 93%]
Pressure (altimeter): 30.28 inches Hg (1025.5 mb)
Winds: calm
Visibility: 6 miles (10 km)
Ceiling: 12000 feet AGL
Clouds: few clouds at 900 feet AGL
scattered clouds at 4600 feet AGL
broken clouds at 12000 feet AGL
Weather: BR  (mist)

METAR text: KSPB 231014Z AUTO 28004KT 3SM BR FEW013 BKN070 03/02 A3027 RMK AO2 T00280022
Conditions at: KSPB (SCAPPOOSE , OR, US) observed 1014 UTC 23 November 2014
Temperature: 2.8°C (37°F)
Dewpoint: 2.2°C (36°F) [RH = 96%]
Pressure (altimeter): 30.27 inches Hg (1025.1 mb)
Winds: from the W (280 degrees) at 5 MPH (4 knots; 2.1 m/s)
Visibility: 3 miles (5 km)
Ceiling: 7000 feet AGL
Clouds: few clouds at 1300 feet AGL
broken clouds at 7000 feet AGL
Weather: BR  (mist)